createdAt,value
2022-08-19T15:26:19.972Z,37.87
2022-08-19T15:28:45.913Z,37.93
2022-08-19T15:31:25.513Z,38.51
2022-08-19T15:33:56.430Z,37.79
2022-08-19T15:36:23.172Z,37.55
2022-08-19T15:38:49.128Z,38.12
2022-08-19T15:41:15.598Z,38.30
2022-08-19T15:43:42.096Z,38.25
2022-08-19T15:46:08.029Z,40.14
2022-08-19T15:48:34.085Z,39.63
2022-08-19T15:51:00.064Z,40.22
2022-08-19T15:53:26.554Z,39.85
2022-08-19T15:55:52.589Z,39.86
2022-08-19T15:58:24.094Z,39.74
2022-08-19T16:00:55.118Z,41.32
2022-08-19T16:03:22.280Z,41.34
2022-08-19T16:05:48.272Z,41.37
2022-08-19T16:08:14.294Z,41.46
2022-08-19T16:10:41.007Z,41.28
2022-08-19T16:13:06.953Z,41.42
2022-08-19T16:15:33.870Z,41.66
2022-08-19T16:17:59.915Z,41.69
2022-08-19T16:20:26.296Z,41.68
2022-08-19T16:22:54.110Z,42.08
2022-08-19T16:25:20.080Z,42.10
2022-08-19T16:28:06.391Z,42.54
2022-08-19T16:30:32.060Z,42.29
2022-08-19T16:32:58.037Z,43.36
2022-08-19T16:35:24.729Z,42.76
2022-08-19T16:37:50.848Z,42.51
2022-08-19T16:40:16.941Z,42.50
2022-08-19T16:42:43.739Z,42.12
2022-08-19T16:45:09.757Z,43.29
2022-08-19T16:47:35.708Z,43.86
2022-08-19T16:50:02.408Z,43.95
2022-08-19T16:52:28.454Z,43.50
2022-08-19T16:54:54.438Z,43.82
2022-08-19T16:57:20.863Z,44.43
2022-08-19T16:59:48.975Z,44.42
2022-08-19T17:02:16.095Z,44.65
2022-08-19T17:04:42.039Z,44.95
2022-08-19T17:07:08.095Z,44.93
2022-08-19T17:09:34.067Z,45.88
2022-08-19T17:12:00.742Z,46.85
2022-08-19T17:14:26.808Z,48.17
2022-08-19T17:16:52.768Z,49.15
2022-08-19T17:19:19.432Z,50.01
2022-08-19T17:21:45.597Z,50.50
2022-08-19T17:24:11.544Z,51.75
2022-08-19T17:26:37.491Z,52.40
2022-08-19T17:29:03.982Z,52.74
2022-08-19T17:31:29.983Z,53.27
2022-08-19T17:33:55.938Z,54.65
2022-08-19T17:36:22.989Z,55.31
2022-08-19T17:38:51.761Z,55.72
2022-08-19T17:41:17.712Z,55.90
2022-08-19T17:43:44.270Z,56.76
2022-08-19T17:46:11.269Z,56.32
2022-08-19T17:48:37.282Z,56.58
2022-08-19T17:51:03.308Z,56.30
2022-08-19T17:53:29.263Z,55.83
2022-08-19T17:55:55.944Z,56.47
2022-08-19T17:58:24.402Z,57.13
2022-08-19T18:00:53.871Z,56.93
2022-08-19T18:03:21.648Z,57.81
2022-08-19T18:05:47.990Z,58.25
2022-08-19T18:08:14.247Z,58.40
2022-08-19T18:10:40.489Z,58.30
2022-08-19T18:13:17.382Z,57.96
2022-08-19T18:15:45.505Z,57.86
2022-08-19T20:25:37.589Z,62.85
2022-08-19T20:28:03.566Z,62.66
2022-08-19T20:30:31.095Z,63.40
2022-08-19T20:32:59.179Z,63.52
2022-08-19T20:35:25.854Z,63.99
2022-08-19T20:37:57.420Z,63.60
2022-08-19T20:40:24.163Z,63.47
2022-08-19T20:42:50.119Z,63.93
2022-08-19T20:45:31.992Z,64.14
2022-08-19T20:48:00.297Z,63.63
2022-08-19T20:50:26.283Z,64.25
2022-08-19T20:52:55.834Z,64.88
2022-08-19T20:55:22.141Z,64.87
2022-08-19T20:57:48.731Z,64.73
2022-08-19T21:00:14.718Z,64.29
2022-08-19T21:02:40.758Z,63.90
2022-08-19T21:05:07.523Z,64.04
2022-08-19T21:07:39.044Z,63.52
2022-08-19T21:10:05.741Z,63.31
2022-08-19T21:12:31.694Z,63.05
2022-08-19T21:14:57.634Z,63.05
2022-08-19T21:17:24.554Z,63.18
2022-08-19T21:19:50.520Z,63.91
2022-08-19T21:22:16.468Z,63.58
2022-08-19T21:24:42.827Z,63.77
2022-08-19T21:27:08.782Z,63.39
2022-08-19T21:29:35.514Z,63.58
2022-08-19T21:32:01.555Z,63.68
2022-08-19T21:34:27.538Z,63.64
2022-08-19T21:36:54.268Z,63.67
2022-08-19T21:39:20.548Z,63.66
2022-08-19T21:41:46.490Z,63.83
2022-08-19T21:44:13.082Z,64.55
2022-08-19T21:46:39.135Z,64.67
2022-08-19T21:49:05.112Z,65.04
2022-08-19T21:51:31.069Z,64.72
2022-08-19T21:53:57.110Z,64.07
2022-08-19T21:56:23.075Z,64.31
2022-08-19T21:58:49.025Z,64.77
2022-08-19T22:01:15.126Z,64.80
2022-08-19T22:03:41.141Z,65.25
2022-08-19T22:06:07.081Z,65.16
2022-08-19T22:08:33.135Z,65.22
2022-08-19T22:10:59.141Z,65.71
2022-08-19T22:13:25.102Z,64.83
2022-08-19T22:15:51.095Z,65.32
2022-08-19T22:18:17.091Z,65.38
2022-08-19T22:20:43.045Z,65.40
2022-08-19T22:23:09.970Z,65.41
2022-08-19T22:25:35.948Z,65.40
2022-08-19T22:28:02.113Z,65.10
2022-08-19T22:30:28.281Z,64.72
2022-08-19T22:32:59.542Z,64.36
2022-08-19T22:35:26.203Z,64.37
2022-08-19T22:37:53.156Z,64.54
2022-08-19T22:40:19.137Z,65.00
2022-08-19T22:42:45.137Z,64.50
2022-08-19T22:45:11.189Z,64.85
2022-08-19T22:47:39.409Z,65.22
2022-08-19T22:50:06.126Z,65.52
2022-08-19T22:52:32.582Z,66.26
2022-08-19T22:54:58.542Z,66.33
2022-08-19T22:57:25.186Z,66.23
2022-08-19T22:59:51.206Z,65.79
2022-08-19T23:02:17.231Z,66.16
2022-08-19T23:04:43.344Z,65.73
2022-08-19T23:07:10.587Z,65.84
2022-08-19T23:09:36.749Z,66.20
2022-08-19T23:12:02.823Z,65.69
2022-08-19T23:14:30.274Z,65.93
2022-08-19T23:16:59.051Z,65.74
